• Join FlightAware (Why Join?)
  • Login
  • US Flag 
09:56AM EDT


 

Airport Tracker/Info


-or-


 

Live Flight TrackerFlight Track Log ✈ AAL1023 ✈ 03-May-2012 ✈ KIAH - KDFW

Flight Track Log - Related Links

Times and Time Zones

All times are in EDT time to prevent confusion due to time zone crossing. See the AAL1023 flight status page for this flight to view local times or setup timezone preferences in your user account.

Time Position Orientation Groundspeed Altitude Reporting Facility
EDT Latitude Longitude Course Direction KTS MPH feet Rate Location/Type
05:45PM 30.0036 -95.3517 136° Southeast  Level FlightAware Approximate
05:46PM 30.0853 -95.3333 167° South  Level FlightAware Approximate
05:47PM 29.9572 -95.3000 27° Northeast 211 243 2,100  Level Houston Center
05:48PM 30.0189 -95.2639 16° North 280 322 3,500 900 Climbing Houston Center
05:49PM 30.0967 -95.2378 358° North 271 312 4,000 300 Climbing Houston Center
05:49PM 30.1300 -95.2389 352° North 280 322 4,000 1,380 Level Houston Center
05:50PM 30.2069 -95.2514 348° North 281 323 6,200 2,580 Climbing Houston Center
05:51PM 30.2858 -95.2708 349° North 311 358 9,200 2,580 Climbing Houston Center
05:52PM 30.3708 -95.2908 352° North 317 365 11,400 2,220 Climbing Houston Center
05:53PM 30.4725 -95.3064 North 317 365 13,700 2,400 Climbing Houston Center
05:54PM 30.5747 -95.3053 North 340 391 16,200 2,040 Climbing Houston Center
05:55PM 30.6836 -95.2947 North 368 423 17,800 1,440 Climbing Houston Center
05:56PM 30.7881 -95.2889 North 375 432 19,100 1,320 Climbing Houston Center
05:57PM 30.8967 -95.2831 North 381 438 20,500 1,500 Climbing Houston Center
05:58PM 31.0139 -95.2753 North 392 451 22,200 1,560 Climbing Houston Center
06:00PM 31.2033 -95.2664 354° North 418 481 24,700 1,380 Climbing Fort Worth Center
06:01PM 31.3353 -95.2828 321° Northwest 430 495 26,000 600 Climbing Fort Worth Center
06:02PM 31.4328 -95.3756 317° Northwest 425 489 26,000  Level Fort Worth Center
06:03PM 31.5219 -95.4736 332° Northwest 426 490 26,000  Level Fort Worth Center
06:04PM 31.6294 -95.5419 346° North 446 513 26,000  Level Fort Worth Center
06:05PM 31.7447 -95.5764 351° North 429 494 26,000  Level Fort Worth Center
06:06PM 31.8581 -95.5986 349° North 412 474 26,000  Level Fort Worth Center
06:07PM 31.9711 -95.6256 317° Northwest 412 474 26,000  Level Fort Worth Center
06:08PM 32.0517 -95.7147 288° West 396 456 26,000 -480 Level Fort Worth Center
06:09PM 32.0889 -95.8464 285° West 383 441 25,100 -960 Descending Fort Worth Center
06:10PM 32.1175 -95.9736 290° West 410 472 24,100 -1,020 Descending Fort Worth Center
06:11PM 32.1542 -96.0956 290° West 410 472 23,100 -1,560 Descending Fort Worth Center
06:12PM 32.1908 -96.2153 317° Northwest 399 459 21,000 -2,040 Descending Fort Worth Center
06:13PM 32.2406 -96.2706 313° West 376 433 19,600 -1,980 Descending FAA TRACON SMA TRACON (SMA)
06:13PM 32.2892 -96.3319 315° West 366 421 18,200 -1,980 Descending FAA TRACON SMA TRACON (SMA)
06:14PM 32.3367 -96.3872 314° West 344 396 17,000 -1,920 Descending FAA TRACON SMA TRACON (SMA)
06:15PM 32.3772 -96.4364 314° West 339 390 15,700 -1,980 Descending FAA TRACON SMA TRACON (SMA)
06:15PM 32.4217 -96.4911 314° West 331 381 14,400 -1,620 Descending FAA TRACON SMA TRACON (SMA)
06:16PM 32.4639 -96.5436 315° West 315 362 13,600 -1,320 Descending FAA TRACON SMA TRACON (SMA)
06:17PM 32.5006 -96.5864 315° West 298 343 12,700 -1,800 Descending FAA TRACON SMA TRACON (SMA)
06:17PM 32.5408 -96.6336 314° West 295 339 11,200 -1,320 Descending FAA TRACON SMA TRACON (SMA)
06:18PM 32.5808 -96.6822 315° West 297 342 11,000 -180 Descending FAA TRACON SMA TRACON (SMA)
06:19PM 32.6164 -96.7250 315° West 296 341 11,000  Level FAA TRACON SMA TRACON (SMA)
06:19PM 32.6564 -96.7731 314° West 296 341 11,000  Level FAA TRACON SMA TRACON (SMA)
06:20PM 32.6961 -96.8214 314° West 295 339 11,000 -120 Level FAA TRACON SMA TRACON (SMA)
06:21PM 32.7311 -96.8639 325° Northwest 291 335 10,900  Descending FAA TRACON SMA TRACON (SMA)
06:21PM 32.7708 -96.8975 359° North 256 295 11,000 -780 Climbing FAA TRACON SMA TRACON (SMA)
06:22PM 32.8208 -96.8986 359° North 260 299 9,900 -1,500 Descending FAA TRACON SMA TRACON (SMA)
06:23PM 32.8717 -96.8992 359° North 262 302 9,000 -1,500 Descending FAA TRACON SMA TRACON (SMA)
06:23PM 32.9161 -96.9000 358° North 259 298 7,900 -1,680 Descending FAA TRACON SMA TRACON (SMA)
06:24PM 32.9664 -96.9019 358° North 260 299 6,800 -1,800 Descending FAA TRACON SMA TRACON (SMA)
06:25PM 33.0147 -96.9039 345° North 249 287 5,500 -1,620 Descending FAA TRACON SMA TRACON (SMA)
06:25PM 33.0528 -96.9161 306° West 237 273 4,700 -1,500 Descending FAA TRACON SMA TRACON (SMA)
06:26PM 33.0867 -96.9708 230° Southwest 213 245 3,000 -1,020 Descending FAA TRACON SMA TRACON (SMA)
06:27PM 33.0647 -97.0022 191° South 183 211 3,000 -120 Level FAA TRACON SMA TRACON (SMA)
06:28PM 33.0342 -97.0092 180° South 168 193 2,900 -420 Descending FAA TRACON SMA TRACON (SMA)
06:28PM 33.0067 -97.0092 180° South 137 158 2,500 -600 Descending FAA TRACON SMA TRACON (SMA)
06:29PM 32.9844 -97.0092 180° South 129 148 2,100 -660 Descending FAA TRACON SMA TRACON (SMA)